Time;durP1;ratioP1;P1;durP2;ratioP2;P2;SDS_P1;SDS_P2;PMS_P1;PMS_P2;Temp;Humidity;BMP_temperature;BMP_pressure;BME280_temperature;BME280_humidity;BME280_pressure;Samples;Min_cycle;Max_cycle;Signal;HPM_P1;HPM_P2
2023/10/15 00:00:58;;;;;;;;;;;;;;;-144.32;100.00;68061.97;10229148;28;19934;-88
2023/10/15 00:05:59;;;;;;;;;;;;;;;-144.32;100.00;68061.97;10203114;29;19977;-89
2023/10/15 00:11:00;;;;;;;;;;;;;;;-144.32;100.00;68061.97;10206854;29;19927;-88
2023/10/15 00:16:06;;;;;;;;;;;;;;;-144.32;100.00;68061.97;10202724;28;19961;-88
2023/10/15 00:21:11;;;;;;;;;;;;;;;-144.32;100.00;68061.97;10154077;29;19987;-89
2023/10/15 00:26:14;;;;;;;;;;;;;;;-144.32;100.00;68061.97;10156409;29;20022;-86
2023/10/15 00:31:24;;;;;;;;;;;;;;;-144.32;100.00;68061.97;10146900;29;19974;-88
2023/10/15 00:36:26;;;;;;;;;;;;;;;-144.32;100.00;68061.97;10184589;29;19923;-86
2023/10/15 00:41:31;;;;;;;;;;;;;;;-144.32;100.00;68061.97;10198413;29;19927;-84
2023/10/15 00:46:37;;;;;;;;;;;;;;;-144.32;100.00;68061.97;10152137;29;19927;-85
2023/10/15 00:51:42;;;;;;;;;;;;;;;-144.32;100.00;68061.97;10172873;29;19927;-85
2023/10/15 00:56:47;;;;;;;;;;;;;;;-144.32;100.00;68061.97;10187045;29;20580;-85
2023/10/15 01:01:54;;;;;;;;;;;;;;;-144.32;100.00;68061.97;10174667;29;19923;-82
2023/10/15 01:07:00;;;;;;;;;;;;;;;-144.32;100.00;68061.97;10192007;29;19927;-85
2023/10/15 01:12:19;;;;;;;;;;;;;;;-144.32;100.00;68061.97;10184377;29;19931;-85
2023/10/15 01:17:26;;;;;;;;;;;;;;;-144.32;100.00;68061.97;10166224;29;19938;-86
2023/10/15 01:22:32;;;;;;;;;;;;;;;-144.32;100.00;68061.97;10184443;29;19934;-84
2023/10/15 01:27:32;;;;;;;;;;;;;;;-144.32;100.00;68061.97;10180396;29;19926;-86
2023/10/15 01:32:38;;;;;;;;;;;;;;;-144.32;100.00;68061.97;10189168;29;19933;-84
2023/10/15 02:01:43;;;;;;;;;;;;;;;-144.32;100.00;68061.97;10257132;28;20246;-83
2023/10/15 02:07:01;;;;;;;;;;;;;;;-144.32;100.00;68061.97;10262606;28;19926;-87
2023/10/15 02:12:14;;;;;;;;;;;;;;;-144.32;100.00;68061.97;10285443;28;20278;-89
2023/10/15 02:17:27;;;;;;;;;;;;;;;-144.32;100.00;68061.97;10246008;28;20422;-87
2023/10/15 02:23:09;;;;;;;;;;;;;;;-144.32;100.00;68061.97;10249743;28;19932;-88
2023/10/15 02:29:27;;;;;;;;;;;;;;;-144.32;100.00;68061.97;10252167;28;19962;-81
2023/10/15 02:34:27;;;;;;;;;;;;;;;-144.32;100.00;68061.97;10246126;28;19934;-80
2023/10/15 02:39:38;;;;;;;;;;;;;;;-144.32;100.00;68061.97;10233298;29;20402;-82
2023/10/15 02:44:54;;;;;;;;;;;;;;;-144.32;100.00;68061.97;10239498;29;19922;-82
2023/10/15 02:50:02;;;;;;;;;;;;;;;-144.32;100.00;68061.97;10221822;29;20010;-83
2023/10/15 02:55:08;;;;;;;;;;;;;;;-144.32;100.00;68061.97;10217962;29;19986;-83
2023/10/15 03:00:34;;;;;;;;;;;;;;;-144.32;100.00;68061.97;10196902;29;19927;-82
2023/10/15 03:05:38;;;;;;;;;;;;;;;-144.32;100.00;68061.97;10201924;29;20405;-79
2023/10/15 03:10:46;;;;;;;;;;;;;;;-144.32;100.00;68061.97;10189660;29;19933;-81
2023/10/15 03:15:49;;;;;;;;;;;;;;;-144.32;100.00;68061.97;10232816;29;20006;-82
2023/10/15 03:21:12;;;;;;;;;;;;;;;-144.32;100.00;68061.97;10199706;29;19922;-81
2023/10/15 03:26:19;;;;;;;;;;;;;;;-144.32;100.00;68061.97;10205698;29;19977;-82
2023/10/15 03:31:25;;;;;;;;;;;;;;;-144.32;100.00;68061.97;10204132;29;19922;-83
2023/10/15 03:36:27;;;;;;;;;;;;;;;-144.32;100.00;68061.97;10196404;28;19934;-84
2023/10/15 03:41:39;;;;;;;;;;;;;;;-144.32;100.00;68061.97;10217132;29;20391;-84
2023/10/15 03:46:42;;;;;;;;;;;;;;;-144.32;100.00;68061.97;10211368;29;19962;-84
2023/10/15 03:51:48;;;;;;;;;;;;;;;-144.32;100.00;68061.97;10219235;29;20378;-84
2023/10/15 03:56:55;;;;;;;;;;;;;;;-144.32;100.00;68061.97;10206429;29;20301;-83
2023/10/15 04:01:58;;;;;;;;;;;;;;;-144.32;100.00;68061.97;10152983;29;20327;-84
2023/10/15 04:07:19;;;;;;;;;;;;;;;-144.32;100.00;68061.97;10189267;29;19927;-83
2023/10/15 04:12:27;;;;;;;;;;;;;;;-144.32;100.00;68061.97;10191521;29;19923;-80
2023/10/15 04:17:29;;;;;;;;;;;;;;;-144.32;100.00;68061.97;10218725;29;20318;-84
2023/10/15 04:22:44;;;;;;;;;;;;;;;-144.32;100.00;68061.97;10205379;29;19926;-84
2023/10/15 04:27:45;;;;;;;;;;;;;;;-144.32;100.00;68061.97;10261450;28;19911;-85
2023/10/15 04:32:47;;;;;;;;;;;;;;;-144.32;100.00;68061.97;10261396;28;19921;-84
2023/10/15 04:37:53;;;;;;;;;;;;;;;-144.32;100.00;68061.97;10224468;28;20381;-83
2023/10/15 04:42:59;;;;;;;;;;;;;;;-144.32;100.00;68061.97;10218766;29;19929;-81
2023/10/15 04:48:12;;;;;;;;;;;;;;;-144.32;100.00;68061.97;10236524;29;19927;-86
2023/10/15 04:53:26;;;;;;;;;;;;;;;-144.32;100.00;68061.97;10244753;28;20761;-83
2023/10/15 04:58:28;;;;;;;;;;;;;;;-144.32;100.00;68061.97;10220153;28;19926;-87
2023/10/15 05:03:30;;;;;;;;;;;;;;;-144.32;100.00;68061.97;10206161;29;19955;-87
2023/10/15 05:08:35;;;;;;;;;;;;;;;-144.32;100.00;68061.97;10204461;29;19938;-81
2023/10/15 05:13:35;;;;;;;;;;;;;;;-144.32;100.00;68061.97;10196863;29;19974;-82
2023/10/15 05:18:35;;;;;;;;;;;;;;;-144.32;100.00;68061.97;10193080;28;19950;-79
2023/10/15 05:23:37;;;;;;;;;;;;;;;-144.32;100.00;68061.97;10222826;29;20435;-84
2023/10/15 05:28:42;;;;;;;;;;;;;;;-144.32;100.00;68061.97;10227643;29;19928;-83
2023/10/15 05:33:45;;;;;;;;;;;;;;;-144.32;100.00;68061.97;10214353;29;19937;-84
2023/10/15 05:38:49;;;;;;;;;;;;;;;-144.32;100.00;68061.97;10223639;28;20506;-86
2023/10/15 05:43:53;;;;;;;;;;;;;;;-144.32;100.00;68061.97;10216496;28;19968;-83
2023/10/15 05:48:55;;;;;;;;;;;;;;;-144.32;100.00;68061.97;10215726;29;19923;-84
2023/10/15 05:53:58;;;;;;;;;;;;;;;-144.32;100.00;68061.97;10183750;29;19927;-87
2023/10/15 05:59:02;;;;;;;;;;;;;;;-144.32;100.00;68061.97;10211418;29;19926;-82
2023/10/15 06:04:03;;;;;;;;;;;;;;;-144.32;100.00;68061.97;10225101;29;19938;-91
2023/10/15 06:09:05;;;;;;;;;;;;;;;-144.32;100.00;68061.97;10206377;29;19926;-81
2023/10/15 06:14:05;;;;;;;;;;;;;;;-144.32;100.00;68061.97;10217264;28;19966;-84
2023/10/15 06:24:20;;;;;;;;;;;;;;;-144.32;100.00;68061.97;10244677;28;20017;-87
2023/10/15 06:29:24;;;;;;;;;;;;;;;-144.32;100.00;68061.97;10229765;29;20005;-85
2023/10/15 06:34:33;;;;;;;;;;;;;;;-144.32;100.00;68061.97;10259027;28;19926;-83
2023/10/15 06:39:34;;;;;;;;;;;;;;;-144.32;100.00;68061.97;10265947;28;19960;-90
2023/10/15 06:44:39;;;;;;;;;;;;;;;-144.32;100.00;68061.97;10250328;28;19930;-88
2023/10/15 06:49:42;;;;;;;;;;;;;;;-144.32;100.00;68061.97;10233218;28;19977;-85
2023/10/15 06:54:45;;;;;;;;;;;;;;;-144.32;100.00;68061.97;10265835;28;19919;-85
2023/10/15 06:59:45;;;;;;;;;;;;;;;-144.32;100.00;68061.97;10242375;28;19921;-85
2023/10/15 07:04:47;;;;;;;;;;;;;;;-144.32;100.00;68061.97;10229938;29;20394;-83
2023/10/15 07:09:52;;;;;;;;;;;;;;;-144.32;100.00;68061.97;10230977;29;20413;-91
2023/10/15 07:20:48;;;;;;;;;;;;;;;-144.32;100.00;68061.97;10231299;28;19953;-83
2023/10/15 07:25:48;;;;;;;;;;;;;;;-144.32;100.00;68061.97;10218319;29;19993;-85
2023/10/15 07:30:50;;;;;;;;;;;;;;;-144.32;100.00;68061.97;10230339;28;19926;-83
2023/10/15 07:35:59;;;;;;;;;;;;;;;-144.32;100.00;68061.97;10195647;28;19927;-83
2023/10/15 07:40:59;;;;;;;;;;;;;;;-144.32;100.00;68061.97;10210182;29;19927;-84
2023/10/15 07:46:00;;;;;;;;;;;;;;;-144.32;100.00;68061.97;10208057;29;20293;-82
2023/10/15 07:51:01;;;;;;;;;;;;;;;-144.32;100.00;68061.97;10202334;29;19930;-84
2023/10/15 07:56:05;;;;;;;;;;;;;;;-144.32;100.00;68061.97;10185012;28;19927;-84
2023/10/15 08:01:38;;;;;;;;;;;;;;;-144.32;100.00;68061.97;10220402;28;19934;-84
2023/10/15 08:06:40;;;;;;;;;;;;;;;-144.32;100.00;68061.97;10215549;28;20013;-86
2023/10/15 08:11:44;;;;;;;;;;;;;;;-144.32;100.00;68061.97;10190998;29;19930;-87
2023/10/15 08:16:47;;;;;;;;;;;;;;;-144.32;100.00;68061.97;10225070;29;19926;-89
2023/10/15 08:22:04;;;;;;;;;;;;;;;-144.32;100.00;68061.97;10202717;29;19919;-83
2023/10/15 08:27:17;;;;;;;;;;;;;;;-144.32;100.00;68061.97;10207070;29;19935;-82
2023/10/15 08:32:17;;;;;;;;;;;;;;;-144.32;100.00;68061.97;10202653;29;20302;-82
2023/10/15 08:37:17;;;;;;;;;;;;;;;-144.32;100.00;68061.97;10196206;28;19926;-88
2023/10/15 08:42:28;;;;;;;;;;;;;;;-144.32;100.00;68061.97;10236321;29;20457;-89
2023/10/15 08:47:57;;;;;;;;;;;;;;;-144.32;100.00;68061.97;10223859;29;21072;-83
2023/10/15 08:53:00;;;;;;;;;;;;;;;-144.32;100.00;68061.97;10190122;29;19950;-82
2023/10/15 08:58:06;;;;;;;;;;;;;;;-144.32;100.00;68061.97;10215582;29;19927;-87
2023/10/15 09:03:07;;;;;;;;;;;;;;;-144.32;100.00;68061.97;10247863;28;19937;-83
2023/10/15 09:08:08;;;;;;;;;;;;;;;-144.32;100.00;68061.97;10268076;28;19918;-85
2023/10/15 09:18:25;;;;;;;;;;;;;;;-144.32;100.00;68061.97;10383026;23;19925;-85
2023/10/15 09:23:44;;;;;;;;;;;;;;;-144.32;100.00;68061.97;10295742;28;19933;-83
2023/10/15 09:28:49;;;;;;;;;;;;;;;-144.32;100.00;68061.97;10303184;28;19918;-84
2023/10/15 09:33:54;;;;;;;;;;;;;;;-144.32;100.00;68061.97;10277591;28;19922;-85
2023/10/15 09:39:12;;;;;;;;;;;;;;;-144.32;100.00;68061.97;10289022;28;19969;-83
2023/10/15 09:58:08;;;;;;;;;;;;;;;-144.32;100.00;68061.97;10337532;28;20370;-84
2023/10/15 10:27:15;;;;;;;;;;;;;;;-144.32;100.00;68061.97;10368718;28;19909;-84
2023/10/15 11:01:59;;;;;;;;;;;;;;;-144.32;100.00;68061.97;10250909;28;20347;-84
2023/10/15 11:07:09;;;;;;;;;;;;;;;-144.32;100.00;68061.97;10263134;28;20037;-85
2023/10/15 11:18:04;;;;;;;;;;;;;;;-144.32;100.00;68061.97;10295351;28;19953;-83
2023/10/15 11:23:10;;;;;;;;;;;;;;;-144.32;100.00;68061.97;10268060;28;19950;-88
2023/10/15 11:28:15;;;;;;;;;;;;;;;-144.32;100.00;68061.97;10308467;28;19957;-88
2023/10/15 11:33:20;;;;;;;;;;;;;;;-144.32;100.00;68061.97;10309940;28;19930;-78
2023/10/15 11:38:20;;;;;;;;;;;;;;;-144.32;100.00;68061.97;10288080;28;19923;-86
2023/10/15 11:43:22;;;;;;;;;;;;;;;-144.32;100.00;68061.97;10271657;28;19948;-88
2023/10/15 11:48:24;;;;;;;;;;;;;;;-144.32;100.00;68061.97;10266437;28;19953;-84
2023/10/15 11:53:25;;;;;;;;;;;;;;;-144.32;100.00;68061.97;10252330;28;19933;-83
2023/10/15 11:58:32;;;;;;;;;;;;;;;-144.32;100.00;68061.97;10260348;28;19926;-82
2023/10/15 12:03:34;;;;;;;;;;;;;;;-144.32;100.00;68061.97;10237893;28;20439;-85
2023/10/15 12:08:35;;;;;;;;;;;;;;;-144.32;100.00;68061.97;10250195;28;19980;-84
2023/10/15 12:13:44;;;;;;;;;;;;;;;-144.32;100.00;68061.97;10299619;28;19953;-86
2023/10/15 12:18:44;;;;;;;;;;;;;;;-144.32;100.00;68061.97;10282696;28;19923;-86
2023/10/15 12:23:45;;;;;;;;;;;;;;;-144.32;100.00;68061.97;10272923;28;20156;-86
2023/10/15 12:28:47;;;;;;;;;;;;;;;-144.32;100.00;68061.97;10283606;28;19958;-85
2023/10/15 12:33:48;;;;;;;;;;;;;;;-144.32;100.00;68061.97;10235895;28;19926;-84
2023/10/15 12:44:17;;;;;;;;;;;;;;;-144.32;100.00;68061.97;10388548;23;19918;-89
2023/10/15 12:49:17;;;;;;;;;;;;;;;-144.32;100.00;68061.97;10290600;28;20387;-70
2023/10/15 12:54:18;;;;;;;;;;;;;;;-144.32;100.00;68061.97;10269916;28;19973;-78
2023/10/15 12:59:18;;;;;;;;;;;;;;;-144.32;100.00;68061.97;10267283;28;19923;-75
2023/10/15 13:04:21;;;;;;;;;;;;;;;-144.32;100.00;68061.97;10264958;28;20394;-73
2023/10/15 13:09:25;;;;;;;;;;;;;;;-144.32;100.00;68061.97;10266512;28;20701;-78
2023/10/15 13:14:26;;;;;;;;;;;;;;;-144.32;100.00;68061.97;10261481;28;19965;-73
2023/10/15 13:19:26;;;;;;;;;;;;;;;-144.32;100.00;68061.97;10263582;28;19941;-75
2023/10/15 13:24:27;;;;;;;;;;;;;;;-144.32;100.00;68061.97;10271381;28;20019;-78
2023/10/15 13:29:28;;;;;;;;;;;;;;;-144.32;100.00;68061.97;10278044;28;19937;-75
2023/10/15 13:34:29;;;;;;;;;;;;;;;-144.32;100.00;68061.97;10273760;28;19925;-73
2023/10/15 13:39:32;;;;;;;;;;;;;;;-144.32;100.00;68061.97;10273976;28;19933;-74
2023/10/15 13:44:33;;;;;;;;;;;;;;;-144.32;100.00;68061.97;10299078;28;20499;-74
2023/10/15 13:49:35;;;;;;;;;;;;;;;-144.32;100.00;68061.97;10298295;28;19972;-84
2023/10/15 13:54:37;;;;;;;;;;;;;;;-144.32;100.00;68061.97;10298243;28;19957;-87
2023/10/15 13:59:37;;;;;;;;;;;;;;;-144.32;100.00;68061.97;10317957;28;20552;-84
2023/10/15 14:04:39;;;;;;;;;;;;;;;-144.32;100.00;68061.97;10273125;28;21280;-83
2023/10/15 14:09:43;;;;;;;;;;;;;;;-144.32;100.00;68061.97;10259662;28;19957;-89
2023/10/15 14:20:20;;;;;;;;;;;;;;;-144.32;100.00;68061.97;10332127;28;19922;-83
2023/10/15 14:25:23;;;;;;;;;;;;;;;-144.32;100.00;68061.97;10328373;28;19984;-83
2023/10/15 14:30:24;;;;;;;;;;;;;;;-144.32;100.00;68061.97;10333859;28;19980;-87
2023/10/15 14:35:25;;;;;;;;;;;;;;;-144.32;100.00;68061.97;10331751;28;19925;-89
2023/10/15 14:40:28;;;;;;;;;;;;;;;-144.32;100.00;68061.97;10354378;28;19960;-91
2023/10/15 14:45:48;;;;;;;;;;;;;;;-144.32;100.00;68061.97;10359685;28;20000;-89
2023/10/15 14:51:06;;;;;;;;;;;;;;;-144.32;100.00;68061.97;10375791;28;19965;-93
2023/10/15 14:56:08;;;;;;;;;;;;;;;-144.32;100.00;68061.97;10356114;28;19921;-84
2023/10/15 15:01:12;;;;;;;;;;;;;;;-144.32;100.00;68061.97;10340374;28;20461;-85
2023/10/15 15:06:12;;;;;;;;;;;;;;;-144.32;100.00;68061.97;10336669;28;19921;-86
2023/10/15 15:11:13;;;;;;;;;;;;;;;-144.32;100.00;68061.97;10347803;28;19920;-94
2023/10/15 15:16:16;;;;;;;;;;;;;;;-144.32;100.00;68061.97;10327061;28;20510;-85
2023/10/15 15:21:16;;;;;;;;;;;;;;;-144.32;100.00;68061.97;10345335;28;20036;-83
2023/10/15 15:26:26;;;;;;;;;;;;;;;-144.32;100.00;68061.97;10350519;28;19932;-83
2023/10/15 15:31:26;;;;;;;;;;;;;;;-144.32;100.00;68061.97;10313533;28;19936;-81
2023/10/15 15:36:28;;;;;;;;;;;;;;;-144.32;100.00;68061.97;10332539;28;19925;-82
2023/10/15 15:41:32;;;;;;;;;;;;;;;-144.32;100.00;68061.97;10314216;28;19926;-86
2023/10/15 15:46:37;;;;;;;;;;;;;;;-144.32;100.00;68061.97;10332906;28;19925;-83
2023/10/15 15:51:38;;;;;;;;;;;;;;;-144.32;100.00;68061.97;10315146;28;19922;-78
2023/10/15 15:56:39;;;;;;;;;;;;;;;-144.32;100.00;68061.97;10311422;28;19925;-85
2023/10/15 16:01:40;;;;;;;;;;;;;;;-144.32;100.00;68061.97;10287152;28;20416;-83
2023/10/15 16:06:42;;;;;;;;;;;;;;;-144.32;100.00;68061.97;10292051;28;21041;-81
2023/10/15 16:11:45;;;;;;;;;;;;;;;-144.32;100.00;68061.97;10302189;28;19936;-79
2023/10/15 16:16:52;;;;;;;;;;;;;;;-144.32;100.00;68061.97;10304083;28;19929;-81
2023/10/15 16:21:52;;;;;;;;;;;;;;;-144.32;100.00;68061.97;10308668;28;20068;-80
2023/10/15 16:26:53;;;;;;;;;;;;;;;-144.32;100.00;68061.97;10309030;28;20001;-80
2023/10/15 16:31:56;;;;;;;;;;;;;;;-144.32;100.00;68061.97;10311704;28;19932;-78
2023/10/15 16:36:56;;;;;;;;;;;;;;;-144.32;100.00;68061.97;10299444;28;19932;-79
2023/10/15 16:41:56;;;;;;;;;;;;;;;-144.32;100.00;68061.97;10302582;28;20516;-79
2023/10/15 16:46:57;;;;;;;;;;;;;;;-144.32;100.00;68061.97;10300841;28;19964;-79
2023/10/15 16:51:57;;;;;;;;;;;;;;;-144.32;100.00;68061.97;10300275;28;19949;-79
2023/10/15 16:56:58;;;;;;;;;;;;;;;-144.32;100.00;68061.97;10306751;28;20845;-79
2023/10/15 17:02:00;;;;;;;;;;;;;;;-144.32;100.00;68061.97;10309216;28;20008;-81
2023/10/15 17:07:04;;;;;;;;;;;;;;;-144.32;100.00;68061.97;10303860;28;19972;-79
2023/10/15 17:12:26;;;;;;;;;;;;;;;-144.32;100.00;68061.97;10313193;28;19930;-81
2023/10/15 17:17:31;;;;;;;;;;;;;;;-144.32;100.00;68061.97;10320014;28;19932;-81
2023/10/15 17:22:40;;;;;;;;;;;;;;;-144.32;100.00;68061.97;10325240;28;19938;-80
2023/10/15 17:27:41;;;;;;;;;;;;;;;-144.32;100.00;68061.97;10327521;28;19930;-79
2023/10/15 17:32:41;;;;;;;;;;;;;;;-144.32;100.00;68061.97;10327215;28;20730;-80
2023/10/15 17:37:48;;;;;;;;;;;;;;;-144.32;100.00;68061.97;10331880;28;19936;-81
2023/10/15 17:42:48;;;;;;;;;;;;;;;-144.32;100.00;68061.97;10312169;28;19929;-83
2023/10/15 17:47:52;;;;;;;;;;;;;;;-144.32;100.00;68061.97;10335880;28;19997;-82
2023/10/15 17:52:54;;;;;;;;;;;;;;;-144.32;100.00;68061.97;10344198;28;19945;-80
2023/10/15 17:57:57;;;;;;;;;;;;;;;-144.32;100.00;68061.97;10332629;28;19937;-79
2023/10/15 18:02:58;;;;;;;;;;;;;;;-144.32;100.00;68061.97;10317410;28;19925;-79
2023/10/15 18:07:58;;;;;;;;;;;;;;;-144.32;100.00;68061.97;10314885;28;19930;-81
2023/10/15 18:12:59;;;;;;;;;;;;;;;-144.32;100.00;68061.97;10314274;28;19918;-79
2023/10/15 18:18:01;;;;;;;;;;;;;;;-144.32;100.00;68061.97;10291729;28;19928;-80
2023/10/15 18:23:01;;;;;;;;;;;;;;;-144.32;100.00;68061.97;10307862;28;20374;-79
2023/10/15 18:28:07;;;;;;;;;;;;;;;-144.32;100.00;68061.97;10316486;28;21059;-80
2023/10/15 18:33:09;;;;;;;;;;;;;;;-144.32;100.00;68061.97;10281746;28;19929;-79
2023/10/15 18:38:10;;;;;;;;;;;;;;;-144.32;100.00;68061.97;10296192;28;19926;-79
2023/10/15 18:43:11;;;;;;;;;;;;;;;-144.32;100.00;68061.97;10307229;28;19960;-79
2023/10/15 18:48:13;;;;;;;;;;;;;;;-144.32;100.00;68061.97;10302196;28;19965;-80
2023/10/15 18:53:13;;;;;;;;;;;;;;;-144.32;100.00;68061.97;10315446;28;19957;-83
2023/10/15 18:58:14;;;;;;;;;;;;;;;-144.32;100.00;68061.97;10305143;28;19925;-81
2023/10/15 19:03:15;;;;;;;;;;;;;;;-144.32;100.00;68061.97;10332158;28;19961;-77
2023/10/15 19:08:16;;;;;;;;;;;;;;;-144.32;100.00;68061.97;10305674;28;20012;-78
2023/10/15 19:13:17;;;;;;;;;;;;;;;-144.32;100.00;68061.97;10308823;28;19926;-76
2023/10/15 19:18:18;;;;;;;;;;;;;;;-144.32;100.00;68061.97;10291837;28;20377;-78
2023/10/15 19:23:19;;;;;;;;;;;;;;;-144.32;100.00;68061.97;10307561;28;19926;-79
2023/10/15 19:28:21;;;;;;;;;;;;;;;-144.32;100.00;68061.97;10301225;28;19992;-79
2023/10/15 19:33:28;;;;;;;;;;;;;;;-144.32;100.00;68061.97;10290283;28;20442;-81
2023/10/15 19:38:31;;;;;;;;;;;;;;;-144.32;100.00;68061.97;10300224;28;19929;-75
2023/10/15 19:43:32;;;;;;;;;;;;;;;-144.32;100.00;68061.97;10304608;28;19932;-81
2023/10/15 19:48:32;;;;;;;;;;;;;;;-144.32;100.00;68061.97;10282354;28;19926;-76
2023/10/15 19:53:32;;;;;;;;;;;;;;;-144.32;100.00;68061.97;10285911;28;19925;-79
2023/10/15 19:58:33;;;;;;;;;;;;;;;-144.32;100.00;68061.97;10311850;28;20301;-87
2023/10/15 20:03:35;;;;;;;;;;;;;;;-144.32;100.00;68061.97;10321445;28;19960;-82
2023/10/15 20:08:37;;;;;;;;;;;;;;;-144.32;100.00;68061.97;10319995;28;20396;-78
2023/10/15 20:13:37;;;;;;;;;;;;;;;-144.32;100.00;68061.97;10329901;28;19926;-76
2023/10/15 20:18:37;;;;;;;;;;;;;;;-144.32;100.00;68061.97;10331492;28;19917;-78
2023/10/15 20:23:38;;;;;;;;;;;;;;;-144.32;100.00;68061.97;10347163;28;19922;-78
2023/10/15 20:28:39;;;;;;;;;;;;;;;-144.32;100.00;68061.97;10317875;28;19969;-77
2023/10/15 20:33:42;;;;;;;;;;;;;;;-144.32;100.00;68061.97;10326601;28;19941;-80
2023/10/15 20:38:42;;;;;;;;;;;;;;;-144.32;100.00;68061.97;10324864;28;20023;-77
2023/10/15 20:43:43;;;;;;;;;;;;;;;-144.32;100.00;68061.97;10326696;28;20009;-78
2023/10/15 20:48:43;;;;;;;;;;;;;;;-144.32;100.00;68061.97;10317006;28;19934;-76
2023/10/15 20:53:43;;;;;;;;;;;;;;;-144.32;100.00;68061.97;10333272;28;19922;-79
2023/10/15 20:58:44;;;;;;;;;;;;;;;-144.32;100.00;68061.97;10323566;28;19925;-76
2023/10/15 21:03:46;;;;;;;;;;;;;;;-144.32;100.00;68061.97;10324808;28;19965;-81
2023/10/15 21:08:47;;;;;;;;;;;;;;;-144.32;100.00;68061.97;10341169;28;19937;-81
2023/10/15 21:13:48;;;;;;;;;;;;;;;-144.32;100.00;68061.97;10295867;28;19929;-79
2023/10/15 21:18:50;;;;;;;;;;;;;;;-144.32;100.00;68061.97;10288891;28;19937;-83
2023/10/15 21:23:50;;;;;;;;;;;;;;;-144.32;100.00;68061.97;10292716;28;21092;-79
2023/10/15 21:28:51;;;;;;;;;;;;;;;-144.32;100.00;68061.97;10290800;28;19925;-84
2023/10/15 21:33:52;;;;;;;;;;;;;;;-144.32;100.00;68061.97;10306774;28;20507;-80
2023/10/15 21:38:54;;;;;;;;;;;;;;;-144.32;100.00;68061.97;10291269;28;19933;-80
2023/10/15 21:43:54;;;;;;;;;;;;;;;-144.32;100.00;68061.97;10305719;28;19977;-80
2023/10/15 21:48:56;;;;;;;;;;;;;;;-144.32;100.00;68061.97;10296856;28;19922;-80
2023/10/15 21:53:57;;;;;;;;;;;;;;;-144.32;100.00;68061.97;10308229;28;19921;-83
2023/10/15 21:58:57;;;;;;;;;;;;;;;-144.32;100.00;68061.97;10319959;28;19933;-80
2023/10/15 22:03:58;;;;;;;;;;;;;;;-144.32;100.00;68061.97;10311928;28;19933;-81
2023/10/15 22:08:58;;;;;;;;;;;;;;;-144.32;100.00;68061.97;10309451;28;19929;-82
2023/10/15 22:14:00;;;;;;;;;;;;;;;-144.32;100.00;68061.97;10305074;28;20224;-79
2023/10/15 22:19:05;;;;;;;;;;;;;;;-144.32;100.00;68061.97;10306723;28;19929;-79
2023/10/15 22:24:06;;;;;;;;;;;;;;;-144.32;100.00;68061.97;10315484;28;20060;-80
2023/10/15 22:29:06;;;;;;;;;;;;;;;-144.32;100.00;68061.97;10308532;28;19930;-81
2023/10/15 22:34:08;;;;;;;;;;;;;;;-144.32;100.00;68061.97;10291227;28;20374;-79
2023/10/15 22:39:08;;;;;;;;;;;;;;;-144.32;100.00;68061.97;10306024;28;19937;-81
2023/10/15 22:44:11;;;;;;;;;;;;;;;-144.32;100.00;68061.97;10312321;28;19926;-77
2023/10/15 22:49:14;;;;;;;;;;;;;;;-144.32;100.00;68061.97;10280284;28;20255;-78
2023/10/15 22:54:15;;;;;;;;;;;;;;;-144.32;100.00;68061.97;10299786;28;19921;-77
2023/10/15 22:59:15;;;;;;;;;;;;;;;-144.32;100.00;68061.97;10287610;28;20297;-81
2023/10/15 23:04:18;;;;;;;;;;;;;;;-144.32;100.00;68061.97;10308137;28;20893;-79
2023/10/15 23:09:18;;;;;;;;;;;;;;;-144.32;100.00;68061.97;10315686;28;20651;-78
2023/10/15 23:14:20;;;;;;;;;;;;;;;-144.32;100.00;68061.97;10298999;28;19932;-83
2023/10/15 23:19:26;;;;;;;;;;;;;;;-144.32;100.00;68061.97;10321009;28;19929;-81
2023/10/15 23:24:27;;;;;;;;;;;;;;;-144.32;100.00;68061.97;10303633;28;19925;-80
2023/10/15 23:29:28;;;;;;;;;;;;;;;-144.32;100.00;68061.97;10314960;28;19926;-75
2023/10/15 23:34:28;;;;;;;;;;;;;;;-144.32;100.00;68061.97;10306183;28;19932;-78
2023/10/15 23:39:31;;;;;;;;;;;;;;;-144.32;100.00;68061.97;10307693;28;19976;-78
2023/10/15 23:44:31;;;;;;;;;;;;;;;-144.32;100.00;68061.97;10308093;28;19933;-80
2023/10/15 23:49:34;;;;;;;;;;;;;;;-144.32;100.00;68061.97;10304696;28;19981;-78
2023/10/15 23:54:35;;;;;;;;;;;;;;;-144.32;100.00;68061.97;10285258;28;20047;-76
